Pagrindinis puslapis
METAR-TAF:

METAR-TAF

Oro uostai :

Sandane, Norvegija

platuma: 61-50N, ilguma: 006-07E, Aukštis: 6 m

Dabartinis oras

Ataskaita buvo paskelbta 16 minutes, ne 12:50 UTC
Vėjas 6 kt nuo kintamojo kryptimis
Temperatūra 0°C
Drėgmė 93%
Slėgis 997 hPa
Matomumas: 5000 m
sniegas

METAR: ENSD 021250Z VRB06KT 5000 -SHSN VV020 M00/M01 Q0997 RMK WIND 1138FT 32008KT

Laikas: 14:06 (13:06 UTC)


TAF: trūkstamas

Orai ataskaitas ir orų prognozės (METAR, TAF).

turimą stotys yra geltonos ir raudonos taškus žemėlapyje.

Perkelti pele per norėdami pamatyti stoties vardą.

Tada spustelėkite, norėdami matyti oro stebėjimo ir prognozės.

Norėdami pakeisti žemėlapį: spustelėkite ant žalios mygtukų su juodo kryžiaus žemyn,; žalią mygtuką su brūkšneliu, jei norite nutolinti; arba žalių rodyklių gretimoms žemėlapius.


METAR-TAF: